createdAt,value
2022-10-25T00:00:06.574Z,13.4
2022-10-25T00:01:06.693Z,13.4
2022-10-25T00:02:06.779Z,13.4
2022-10-25T00:03:06.765Z,13.4
2022-10-25T00:04:06.872Z,13.5
2022-10-25T00:05:06.868Z,13.6
2022-10-25T00:06:06.968Z,13.6
2022-10-25T00:07:06.993Z,13.5
2022-10-25T00:08:07.116Z,13.5
2022-10-25T00:09:07.131Z,13.5
2022-10-25T00:10:07.143Z,13.6
2022-10-25T00:11:07.218Z,13.5
2022-10-25T00:12:07.279Z,13.5
2022-10-25T00:13:07.336Z,13.5
2022-10-25T00:14:07.391Z,13.4
2022-10-25T00:15:07.470Z,13.4
2022-10-25T00:16:07.523Z,13.5
2022-10-25T00:17:07.572Z,13.5
2022-10-25T00:18:07.603Z,13.5
2022-10-25T00:19:31.622Z,13.5
2022-10-25T00:20:31.676Z,13.5
2022-10-25T00:21:31.744Z,13.5
2022-10-25T00:22:31.778Z,13.4
2022-10-25T00:23:31.853Z,13.5
2022-10-25T00:24:31.950Z,13.5
2022-10-25T00:25:32.001Z,13.5
2022-10-25T00:26:32.096Z,13.4
2022-10-25T00:27:37.131Z,13.4
2022-10-25T00:28:32.186Z,13.4
2022-10-25T00:29:32.232Z,13.4
2022-10-25T00:30:32.375Z,13.4
2022-10-25T00:31:32.417Z,13.5
2022-10-25T00:32:32.466Z,13.5
2022-10-25T00:33:32.562Z,13.4
2022-10-25T00:34:32.588Z,13.4
2022-10-25T00:35:32.613Z,13.4
2022-10-25T00:36:32.704Z,13.3
2022-10-25T00:37:32.775Z,13.4
2022-10-25T00:38:33.952Z,13.4
2022-10-25T00:39:32.866Z,13.4
2022-10-25T00:40:32.958Z,13.3
2022-10-25T00:41:33.243Z,13.3
2022-10-25T00:42:33.118Z,13.2
2022-10-25T00:43:33.136Z,13.3
2022-10-25T00:44:33.188Z,13.3
2022-10-25T00:45:33.292Z,13.4
2022-10-25T00:46:33.335Z,13.4
2022-10-25T00:47:33.371Z,13.3
2022-10-25T00:48:33.488Z,13.3
2022-10-25T00:49:33.512Z,13.3
2022-10-25T00:50:33.551Z,13.3
2022-10-25T00:51:33.661Z,13.3
2022-10-25T00:52:33.812Z,13.3
2022-10-25T00:53:33.761Z,13.3
2022-10-25T00:54:34.219Z,13.3
2022-10-25T00:55:33.923Z,13.2
2022-10-25T00:56:33.982Z,13.3
2022-10-25T00:57:33.996Z,13.3
2022-10-25T00:58:34.081Z,13.3
2022-10-25T00:59:34.136Z,13.3
2022-10-25T01:00:34.202Z,13.3
2022-10-25T01:01:34.374Z,13.3
2022-10-25T01:02:34.419Z,13.2
2022-10-25T01:03:34.384Z,13.1
2022-10-25T01:04:39.395Z,13.1
2022-10-25T01:05:34.697Z,13.1
2022-10-25T01:06:34.509Z,13.2
2022-10-25T01:07:34.777Z,13.2
2022-10-25T01:08:34.614Z,13.2
2022-10-25T01:09:34.613Z,13.2
2022-10-25T01:10:34.691Z,13.2
2022-10-25T01:11:34.708Z,13.2
2022-10-25T01:12:34.862Z,13.2
2022-10-25T01:13:34.846Z,13.1
2022-10-25T01:14:34.906Z,13.2
2022-10-25T01:15:34.972Z,13.1
2022-10-25T01:16:35.052Z,13.1
2022-10-25T01:17:35.083Z,13.1
2022-10-25T01:18:35.188Z,13.2
2022-10-25T01:19:35.201Z,13.2
2022-10-25T01:20:35.255Z,13.2
2022-10-25T01:21:35.299Z,13.2
2022-10-25T01:22:45.699Z,13.3
2022-10-25T01:23:35.443Z,13.3
2022-10-25T01:24:35.512Z,13.3
2022-10-25T01:25:35.532Z,13.3
2022-10-25T01:26:35.624Z,13.3
2022-10-25T01:27:35.668Z,13.3
2022-10-25T01:28:35.744Z,13.3
2022-10-25T01:29:35.772Z,13.3
2022-10-25T01:30:35.833Z,13.3
2022-10-25T01:31:35.916Z,13.2
2022-10-25T01:32:37.060Z,13.1
2022-10-25T01:33:36.073Z,13.1
2022-10-25T01:34:36.146Z,13.1
2022-10-25T01:35:36.174Z,13.1
2022-10-25T01:36:36.273Z,13.1
2022-10-25T01:37:36.309Z,13.1
2022-10-25T01:38:36.359Z,13.1
2022-10-25T01:39:36.415Z,13.1
2022-10-25T01:40:36.474Z,13.1
2022-10-25T01:41:36.546Z,13.1
2022-10-25T01:42:41.844Z,13.1
2022-10-25T01:43:36.736Z,13.1
2022-10-25T01:45:36.780Z,13.1
2022-10-25T01:46:36.872Z,13
2022-10-25T01:47:36.934Z,13.1
2022-10-25T01:48:36.993Z,13.1
2022-10-25T01:49:37.059Z,13.1
2022-10-25T01:50:37.386Z,13.1
2022-10-25T01:51:37.175Z,13.3
2022-10-25T01:52:37.264Z,13.3
2022-10-25T01:53:37.306Z,13.2
2022-10-25T01:54:37.375Z,13.2
2022-10-25T01:55:37.459Z,13.1
2022-10-25T01:56:37.495Z,13.2
2022-10-25T01:57:37.548Z,13.2
2022-10-25T01:58:37.622Z,13.2
2022-10-25T01:59:37.691Z,13.3
2022-10-25T02:00:37.818Z,13.3
2022-10-25T02:01:37.975Z,13.3
2022-10-25T02:02:43.028Z,13.3
2022-10-25T02:03:37.964Z,13.3
2022-10-25T02:04:42.980Z,13.3
2022-10-25T02:05:39.320Z,13.2
2022-10-25T02:06:43.110Z,13.3
2022-10-25T02:07:38.174Z,13.2
2022-10-25T02:08:38.227Z,13.3
2022-10-25T02:09:38.326Z,13.2
2022-10-25T02:10:38.379Z,13.3
2022-10-25T02:11:43.450Z,13.3
2022-10-25T02:12:38.741Z,13.2
2022-10-25T02:13:38.549Z,13.3
2022-10-25T02:14:38.611Z,13.3
2022-10-25T02:15:38.865Z,13.3
2022-10-25T02:16:38.693Z,13.3
2022-10-25T02:17:38.736Z,13.3
2022-10-25T02:18:38.798Z,13.3
2022-10-25T02:19:38.783Z,13.3
2022-10-25T02:20:40.749Z,13.3
2022-10-25T02:21:39.198Z,13.3
2022-10-25T02:22:38.924Z,13.3
2022-10-25T02:23:39.032Z,13.3
2022-10-25T02:24:39.102Z,13.3
2022-10-25T02:25:39.142Z,13.2
2022-10-25T02:26:44.224Z,13.2
2022-10-25T02:27:39.300Z,13.2
2022-10-25T02:28:44.331Z,13.2
2022-10-25T02:29:39.398Z,13.2
2022-10-25T02:30:39.452Z,13.3
2022-10-25T02:31:39.538Z,13.3
2022-10-25T02:32:39.808Z,13.3
2022-10-25T02:33:39.630Z,13.3
2022-10-25T02:34:39.689Z,13.3
2022-10-25T02:35:40.028Z,13.3
2022-10-25T02:36:39.808Z,13.2
2022-10-25T02:37:39.983Z,13.3
2022-10-25T02:38:39.966Z,13.3
2022-10-25T02:39:40.039Z,13.3
2022-10-25T02:40:40.070Z,13.3
2022-10-25T02:41:40.150Z,13.4
2022-10-25T02:42:40.206Z,13.3
2022-10-25T02:43:40.496Z,13.3
2022-10-25T02:44:40.313Z,13.2
2022-10-25T02:45:40.443Z,13.2
2022-10-25T02:46:40.483Z,13.2
2022-10-25T02:47:41.618Z,13.3
2022-10-25T02:48:40.578Z,13.3
2022-10-25T02:49:40.671Z,13.4
2022-10-25T02:50:40.945Z,13.3
2022-10-25T02:51:40.809Z,13.3
2022-10-25T02:52:40.850Z,13.3
2022-10-25T02:53:40.936Z,13.3
2022-10-25T02:54:40.966Z,13.3
2022-10-25T02:55:41.015Z,13.2
2022-10-25T02:56:41.058Z,13.2
2022-10-25T02:57:41.122Z,13.3
2022-10-25T02:58:41.189Z,13.3
2022-10-25T02:59:41.290Z,13.2
2022-10-25T03:00:41.366Z,13.1
2022-10-25T03:01:41.437Z,13.2
2022-10-25T03:02:41.469Z,13.1
2022-10-25T03:03:46.490Z,13.1
2022-10-25T03:04:41.608Z,13.1
2022-10-25T03:05:41.669Z,13
2022-10-25T03:06:41.751Z,13.1
2022-10-25T03:07:41.745Z,13.1
2022-10-25T03:08:41.842Z,13.1
2022-10-25T03:09:41.930Z,13.1
2022-10-25T03:10:42.980Z,13.1
2022-10-25T03:11:42.011Z,13.1
2022-10-25T03:12:42.300Z,13.1
2022-10-25T03:13:42.119Z,13
2022-10-25T03:14:42.212Z,13
2022-10-25T03:15:42.248Z,13.1
2022-10-25T03:16:42.355Z,13.1
2022-10-25T03:17:42.420Z,13.1
2022-10-25T03:18:42.658Z,13.1
2022-10-25T03:19:42.494Z,13.1
2022-10-25T03:20:42.536Z,13.1
2022-10-25T03:21:42.549Z,13.1
2022-10-25T03:22:42.570Z,13.2
2022-10-25T03:23:42.633Z,13.3
2022-10-25T03:24:42.680Z,13.2
2022-10-25T03:25:42.779Z,13.1
2022-10-25T03:26:42.810Z,13.2
2022-10-25T03:28:43.250Z,13.2
2022-10-25T03:28:43.314Z,13.2
2022-10-25T03:29:43.072Z,13.2
2022-10-25T03:30:44.017Z,13.1
2022-10-25T03:31:42.981Z,13.2
2022-10-25T03:32:43.034Z,13.2
2022-10-25T03:33:43.035Z,13.2
2022-10-25T03:34:43.130Z,13.2
2022-10-25T03:35:43.136Z,13.1
2022-10-25T03:36:43.198Z,13.1
2022-10-25T03:37:43.445Z,13.2
2022-10-25T03:38:43.311Z,13.2
2022-10-25T03:39:43.393Z,13.2
2022-10-25T03:40:43.423Z,13.2
2022-10-25T03:41:43.523Z,13.2
2022-10-25T03:42:43.558Z,13.2
2022-10-25T03:43:43.602Z,13.2
2022-10-25T03:44:43.657Z,13.3
2022-10-25T03:45:43.710Z,13.3
2022-10-25T03:46:44.076Z,13.3
2022-10-25T03:47:43.895Z,13.3
2022-10-25T03:48:43.885Z,13.3
2022-10-25T03:49:43.945Z,13.2
2022-10-25T03:50:44.022Z,13.3
2022-10-25T03:51:44.129Z,13.3
2022-10-25T03:52:44.109Z,13.4
2022-10-25T03:53:44.171Z,13.3
2022-10-25T03:54:44.239Z,13.3
2022-10-25T03:55:44.304Z,13.3
2022-10-25T03:56:44.398Z,13.3
2022-10-25T03:57:44.745Z,13.4
2022-10-25T03:58:44.487Z,13.4
2022-10-25T03:59:44.558Z,13.3
2022-10-25T04:00:44.623Z,13.2
2022-10-25T04:01:44.780Z,13.1
2022-10-25T04:02:44.745Z,13.1
2022-10-25T04:03:44.783Z,13.1
2022-10-25T04:04:44.865Z,13.2
2022-10-25T04:05:44.885Z,13.3
2022-10-25T04:06:44.939Z,13.2
2022-10-25T04:07:45.325Z,13.3
2022-10-25T04:08:45.060Z,13.3
2022-10-25T04:09:45.436Z,13.2
2022-10-25T04:10:45.446Z,13.2
2022-10-25T04:11:45.215Z,13.2
2022-10-25T04:12:45.365Z,13.1
2022-10-25T04:13:45.386Z,13.1
2022-10-25T04:14:45.420Z,13.1
2022-10-25T04:15:45.476Z,13.2
2022-10-25T04:16:45.586Z,13.2
2022-10-25T04:17:45.847Z,13.1
2022-10-25T04:18:45.652Z,13.2
2022-10-25T04:19:45.722Z,13.2
2022-10-25T04:20:45.868Z,13.2
2022-10-25T04:21:45.920Z,13.2
2022-10-25T04:22:45.918Z,13.2
2022-10-25T04:23:46.005Z,13.3
2022-10-25T04:24:46.111Z,13.3
2022-10-25T04:25:46.108Z,13.3
2022-10-25T04:26:51.142Z,13.3
2022-10-25T04:27:46.565Z,13.2
2022-10-25T04:28:46.238Z,13.2
2022-10-25T04:29:46.359Z,13.2
2022-10-25T04:31:28.898Z,13.2
2022-10-25T04:32:25.050Z,13.2
2022-10-25T04:32:46.736Z,13.2
2022-10-25T04:33:48.819Z,13.2
2022-10-25T04:34:46.666Z,13.2
2022-10-25T04:35:46.706Z,13.2
2022-10-25T04:36:46.797Z,13.2
2022-10-25T04:37:46.765Z,13.2
2022-10-25T04:38:46.785Z,13.2
2022-10-25T04:39:46.854Z,13.1
2022-10-25T04:40:46.874Z,13
2022-10-25T04:41:46.959Z,13
2022-10-25T04:42:47.234Z,13.1
2022-10-25T04:43:47.041Z,13.1
2022-10-25T04:44:47.078Z,13.1
2022-10-25T04:45:48.460Z,13.1
2022-10-25T04:46:52.214Z,13
2022-10-25T04:47:47.233Z,13.1
2022-10-25T04:48:47.320Z,13.1
2022-10-25T04:49:47.454Z,13.2
2022-10-25T04:50:52.742Z,13.2
2022-10-25T04:51:47.530Z,13.3
2022-10-25T04:52:47.674Z,13.2
2022-10-25T04:53:47.614Z,13.1
2022-10-25T04:54:47.665Z,13.1
2022-10-25T04:55:47.728Z,13.1
2022-10-25T04:56:48.839Z,13.2
2022-10-25T04:57:47.915Z,13.1
2022-10-25T04:58:48.180Z,13.1
2022-10-25T04:59:49.074Z,13.2
2022-10-25T05:00:48.327Z,13.3
2022-10-25T05:01:53.172Z,13.3
2022-10-25T05:02:50.348Z,13.3
2022-10-25T05:03:48.259Z,13.2
2022-10-25T05:04:48.269Z,13.2
2022-10-25T05:05:48.356Z,13.1
2022-10-25T05:06:48.406Z,13.1
2022-10-25T05:07:53.425Z,13
2022-10-25T05:08:48.551Z,13
2022-10-25T05:09:48.556Z,13.1
2022-10-25T05:10:48.596Z,13.1
2022-10-25T05:11:48.674Z,13.1
2022-10-25T05:12:49.150Z,13.1
2022-10-25T05:13:53.774Z,13.1
2022-10-25T05:14:48.822Z,13
2022-10-25T05:15:48.896Z,13.2
2022-10-25T05:16:48.963Z,13.2
2022-10-25T05:17:49.118Z,13.1
2022-10-25T05:18:49.159Z,13.1
2022-10-25T05:19:49.277Z,13.1
2022-10-25T05:20:49.274Z,13
2022-10-25T05:21:49.311Z,13
2022-10-25T05:22:49.713Z,13
2022-10-25T05:23:49.406Z,13
2022-10-25T05:24:49.494Z,13.1
2022-10-25T05:25:49.521Z,13
2022-10-25T05:26:49.578Z,13
2022-10-25T05:27:49.676Z,13.1
2022-10-25T05:28:49.762Z,13.1
2022-10-25T05:29:49.795Z,13
2022-10-25T05:30:50.086Z,13
2022-10-25T05:31:50.118Z,13.1
2022-10-25T05:32:50.253Z,13
2022-10-25T05:33:50.120Z,13.1
2022-10-25T05:34:50.163Z,13.1
2022-10-25T05:35:51.037Z,13.1
2022-10-25T05:36:51.250Z,13.1
2022-10-25T05:37:50.303Z,13
2022-10-25T05:38:50.314Z,13
2022-10-25T05:39:50.381Z,13
2022-10-25T05:40:50.494Z,13
2022-10-25T05:41:50.562Z,13.1
2022-10-25T05:42:50.515Z,13.1
2022-10-25T05:43:50.916Z,13.1
2022-10-25T05:45:27.019Z,13.1
2022-10-25T05:46:28.369Z,13.1
2022-10-25T05:46:50.772Z,13.1
2022-10-25T05:47:51.099Z,13.1
2022-10-25T05:48:50.879Z,13.1
2022-10-25T05:50:10.895Z,13
2022-10-25T05:51:34.471Z,13.1
2022-10-25T05:52:40.846Z,13
2022-10-25T05:53:55.888Z,13.1
2022-10-25T05:55:10.877Z,13
2022-10-25T05:56:25.953Z,12.9
2022-10-25T05:57:35.037Z,12.9
2022-10-25T05:58:35.400Z,12.9
2022-10-25T05:59:35.045Z,12.9
2022-10-25T06:00:35.245Z,13
2022-10-25T06:01:35.337Z,13.1
2022-10-25T06:02:40.315Z,13
2022-10-25T06:03:35.435Z,13
2022-10-25T06:04:35.334Z,13.1
2022-10-25T06:05:50.621Z,13.1
2022-10-25T06:06:35.899Z,13.1
2022-10-25T06:07:35.833Z,13
2022-10-25T06:09:07.618Z,13.1
2022-10-25T06:10:18.830Z,13.1
2022-10-25T06:10:37.111Z,13.1
2022-10-25T06:11:36.059Z,13.1
2022-10-25T06:12:35.846Z,13
2022-10-25T06:13:35.869Z,13
2022-10-25T06:14:37.163Z,13.1
2022-10-25T06:15:36.029Z,13.1
2022-10-25T06:16:36.155Z,13.1
2022-10-25T06:17:36.282Z,13.1
2022-10-25T06:18:36.275Z,13.1
2022-10-25T06:19:36.217Z,13.1
2022-10-25T06:20:36.319Z,13.1
2022-10-25T06:21:36.423Z,13.1
2022-10-25T06:22:36.835Z,13
2022-10-25T06:23:36.557Z,13
2022-10-25T06:24:36.527Z,13
2022-10-25T06:25:36.556Z,12.9
2022-10-25T06:26:36.662Z,13
2022-10-25T06:27:36.690Z,13.1
2022-10-25T06:28:36.834Z,13.1
2022-10-25T06:29:36.808Z,13.1
2022-10-25T06:30:37.108Z,13.1
2022-10-25T06:31:37.013Z,13.1
2022-10-25T06:32:37.474Z,13.1
2022-10-25T06:33:37.180Z,13
2022-10-25T06:34:37.380Z,12.9
2022-10-25T06:35:37.203Z,13
2022-10-25T06:36:37.534Z,13
2022-10-25T06:37:37.357Z,13
2022-10-25T06:38:37.421Z,12.9
2022-10-25T06:39:37.470Z,12.9
2022-10-25T06:40:37.492Z,12.9
2022-10-25T06:41:37.816Z,12.9
2022-10-25T06:42:37.672Z,13
2022-10-25T06:43:37.757Z,13
2022-10-25T06:44:37.768Z,12.9
2022-10-25T06:45:38.049Z,13
2022-10-25T06:47:04.741Z,13
2022-10-25T06:47:37.982Z,13
2022-10-25T06:48:38.044Z,13
2022-10-25T06:49:38.069Z,13
2022-10-25T06:50:38.173Z,13
2022-10-25T06:51:38.209Z,13
2022-10-25T06:52:38.267Z,13
2022-10-25T06:53:38.381Z,13.1
2022-10-25T06:54:38.423Z,13
2022-10-25T06:55:38.453Z,12.9
2022-10-25T06:56:38.527Z,12.9
2022-10-25T06:57:46.936Z,13
2022-10-25T06:59:01.936Z,13.1
2022-10-25T07:00:16.944Z,13
2022-10-25T07:01:32.043Z,13
2022-10-25T07:02:47.220Z,13.1
2022-10-25T07:04:01.973Z,13.1
2022-10-25T07:05:16.945Z,13.1
2022-10-25T07:06:19.998Z,13.1
2022-10-25T07:07:20.087Z,13.3
2022-10-25T07:08:20.205Z,13.2
2022-10-25T07:09:20.133Z,13.1
2022-10-25T07:10:20.162Z,13.2
2022-10-25T07:11:20.222Z,13.2
2022-10-25T07:12:20.252Z,13.1
2022-10-25T07:13:20.362Z,13.1
2022-10-25T07:14:20.377Z,13.2
2022-10-25T07:15:20.470Z,13.2
2022-10-25T07:16:20.507Z,13.1
2022-10-25T07:17:20.583Z,13.2
2022-10-25T07:18:20.625Z,13.2
2022-10-25T07:19:20.636Z,13.2
2022-10-25T07:20:20.745Z,13.2
2022-10-25T07:21:20.802Z,13.2
2022-10-25T07:22:20.864Z,13.2
2022-10-25T07:23:20.899Z,13.3
2022-10-25T07:24:20.973Z,13.3
2022-10-25T07:25:21.039Z,13.3
2022-10-25T07:26:21.069Z,13.3
2022-10-25T07:27:21.127Z,13.4
2022-10-25T07:28:21.230Z,13.4
2022-10-25T07:29:21.242Z,13.4
2022-10-25T07:30:21.311Z,13.4
2022-10-25T07:31:26.349Z,13.4
2022-10-25T07:32:21.411Z,13.5
2022-10-25T07:33:21.465Z,13.5
2022-10-25T07:34:21.537Z,13.6
2022-10-25T07:35:21.568Z,13.6
2022-10-25T07:36:21.654Z,13.6
2022-10-25T07:37:21.700Z,13.6
2022-10-25T07:38:25.568Z,13.6
2022-10-25T07:39:21.812Z,13.6
2022-10-25T07:40:21.850Z,13.6
2022-10-25T07:41:21.943Z,13.7
2022-10-25T07:42:21.972Z,13.7
2022-10-25T07:43:22.015Z,13.6
2022-10-25T07:44:24.852Z,13.6
2022-10-25T07:45:23.530Z,13.6
2022-10-25T07:46:22.176Z,13.6
2022-10-25T07:47:22.245Z,13.6
2022-10-25T07:48:22.315Z,13.6
2022-10-25T07:49:22.386Z,13.6
2022-10-25T07:50:22.394Z,13.6
2022-10-25T07:51:22.435Z,13.7
2022-10-25T07:52:22.439Z,13.7
2022-10-25T07:53:22.532Z,13.7
2022-10-25T07:54:22.593Z,13.8
2022-10-25T07:55:22.595Z,13.7
2022-10-25T07:56:26.672Z,13.8
2022-10-25T07:57:23.688Z,13.7
2022-10-25T07:58:23.042Z,13.7
2022-10-25T07:59:22.798Z,13.7
2022-10-25T08:00:22.861Z,13.8
2022-10-25T08:01:22.958Z,13.8
2022-10-25T08:02:26.116Z,13.8
2022-10-25T08:03:23.072Z,13.9
2022-10-25T08:04:23.202Z,14
2022-10-25T08:05:23.142Z,13.9
2022-10-25T08:07:32.019Z,13.9
2022-10-25T08:10:01.989Z,13.9
2022-10-25T08:11:57.108Z,14
2022-10-25T08:12:57.647Z,14
2022-10-25T08:13:56.945Z,14.1
2022-10-25T08:14:58.473Z,14.1
2022-10-25T08:15:57.049Z,14.1
2022-10-25T08:16:58.754Z,14.2
2022-10-25T08:17:57.238Z,14.3
2022-10-25T08:18:57.625Z,14.3
2022-10-25T08:19:57.194Z,14.4
2022-10-25T08:21:03.255Z,14.4
2022-10-25T08:21:57.248Z,14.5
2022-10-25T08:22:58.924Z,14.4
2022-10-25T08:23:57.466Z,14.5
2022-10-25T08:24:58.946Z,14.5
2022-10-25T08:25:57.492Z,14.5
2022-10-25T08:27:00.202Z,14.4
2022-10-25T08:27:57.615Z,14.4
2022-10-25T08:28:58.558Z,14.4
2022-10-25T08:29:58.271Z,14.3
2022-10-25T08:30:57.823Z,14.3
2022-10-25T08:31:57.798Z,14.4
2022-10-25T08:33:00.095Z,14.4
2022-10-25T08:33:57.939Z,14.5
2022-10-25T08:34:58.292Z,14.5
2022-10-25T08:35:57.989Z,14.5
2022-10-25T08:36:58.793Z,14.6
2022-10-25T08:37:58.053Z,14.6
2022-10-25T08:38:59.678Z,14.6
2022-10-25T08:39:58.170Z,14.6
2022-10-25T08:41:01.036Z,14.7
2022-10-25T08:42:00.328Z,14.8
2022-10-25T08:42:58.680Z,14.9
2022-10-25T08:44:59.821Z,15
2022-10-25T08:45:58.516Z,15
2022-10-25T08:46:58.550Z,15.2
2022-10-25T08:48:01.704Z,15.3
2022-10-25T08:48:59.683Z,15.3
2022-10-25T08:49:58.751Z,15.3
2022-10-25T08:50:59.289Z,15.4
2022-10-25T08:51:58.853Z,15.5
2022-10-25T08:52:58.853Z,15.6
2022-10-25T08:54:01.146Z,15.6
2022-10-25T08:55:00.377Z,15.6
2022-10-25T08:56:15.495Z,15.6
2022-10-25T08:57:16.483Z,15.5
2022-10-25T08:57:59.157Z,15.6
2022-10-25T08:58:59.452Z,15.6
2022-10-25T09:00:01.107Z,15.7
2022-10-25T09:00:59.390Z,15.8
2022-10-25T09:01:59.688Z,16
2022-10-25T09:03:03.241Z,16
2022-10-25T09:03:59.576Z,15.9
2022-10-25T09:04:59.625Z,15.9
2022-10-25T09:06:01.162Z,15.8
2022-10-25T09:06:59.758Z,15.8
2022-10-25T09:07:59.808Z,15.6
2022-10-25T09:09:01.220Z,15.3
2022-10-25T09:09:59.927Z,15.4
2022-10-25T09:11:01.046Z,15.4
2022-10-25T09:12:00.885Z,15.4
2022-10-25T09:13:00.137Z,15.3
2022-10-25T09:14:00.168Z,15.4
2022-10-25T09:15:01.257Z,15.4
2022-10-25T09:16:00.296Z,15.4
2022-10-25T09:17:00.413Z,15.5
2022-10-25T09:18:01.630Z,15.5
2022-10-25T09:19:00.417Z,15.4
2022-10-25T09:20:00.549Z,15.4
2022-10-25T09:21:01.374Z,15.4
2022-10-25T09:22:00.629Z,15.4
2022-10-25T09:23:00.742Z,15.3
2022-10-25T09:24:00.745Z,15.3
2022-10-25T09:25:00.820Z,15.3
2022-10-25T09:26:00.843Z,15.3
2022-10-25T09:27:01.655Z,15.3
2022-10-25T09:28:00.975Z,15.4
2022-10-25T09:29:00.991Z,15.4
2022-10-25T09:30:03.709Z,15.4
2022-10-25T09:31:01.071Z,15.3
2022-10-25T09:32:01.118Z,15.3
2022-10-25T09:33:03.223Z,15.3
2022-10-25T09:34:03.093Z,15.3
2022-10-25T09:35:01.276Z,15.3
2022-10-25T09:36:02.176Z,15.2
2022-10-25T09:37:01.419Z,15.2
2022-10-25T09:38:01.472Z,15.3
2022-10-25T09:39:05.871Z,15.3
2022-10-25T09:40:01.620Z,15.4
2022-10-25T09:41:01.701Z,15.4
2022-10-25T09:42:05.079Z,15.5
2022-10-25T09:44:05.228Z,15.5
2022-10-25T09:45:05.278Z,15.3
2022-10-25T09:46:05.317Z,15.3
2022-10-25T09:47:05.448Z,15.5
2022-10-25T09:48:05.407Z,15.6
2022-10-25T09:49:05.469Z,15.5
2022-10-25T09:50:05.553Z,15.5
2022-10-25T09:51:05.614Z,15.6
2022-10-25T09:52:05.693Z,15.6
2022-10-25T09:53:05.726Z,15.7
2022-10-25T09:54:05.799Z,15.7
2022-10-25T09:55:05.869Z,15.8
2022-10-25T09:56:05.922Z,15.8
2022-10-25T09:57:05.963Z,15.8
2022-10-25T09:58:05.997Z,15.7
2022-10-25T09:59:06.108Z,15.6
2022-10-25T10:00:06.141Z,15.7
2022-10-25T10:01:06.273Z,15.8
2022-10-25T10:02:06.423Z,15.8
2022-10-25T10:03:06.329Z,15.8
2022-10-25T10:04:06.382Z,15.8
2022-10-25T10:05:06.452Z,15.7
2022-10-25T10:06:06.514Z,15.7
2022-10-25T10:07:06.585Z,15.8
2022-10-25T10:08:06.635Z,15.8
2022-10-25T10:09:10.813Z,15.8
2022-10-25T10:10:06.766Z,15.8
2022-10-25T10:11:06.810Z,15.8
2022-10-25T10:12:07.275Z,15.8
2022-10-25T10:13:06.921Z,15.8
2022-10-25T10:14:09.044Z,15.8
2022-10-25T10:15:09.439Z,15.7
2022-10-25T10:16:07.084Z,15.8
2022-10-25T10:17:07.182Z,15.8
2022-10-25T10:18:09.912Z,15.8
2022-10-25T10:19:07.264Z,15.7
2022-10-25T10:20:07.402Z,15.7
2022-10-25T10:21:34.496Z,15.6
2022-10-25T10:22:07.478Z,15.6
2022-10-25T10:24:40.365Z,15.6
2022-10-25T10:25:07.643Z,15.7
2022-10-25T10:26:07.726Z,15.8
2022-10-25T10:27:07.798Z,15.6
2022-10-25T10:28:07.835Z,15.6
2022-10-25T10:29:08.806Z,15.6
2022-10-25T10:30:07.960Z,15.7
2022-10-25T10:31:08.033Z,15.8
2022-10-25T10:32:08.089Z,15.7
2022-10-25T10:33:08.136Z,15.7
2022-10-25T10:34:08.221Z,15.7
2022-10-25T10:35:08.245Z,15.7
2022-10-25T10:36:08.293Z,15.7
2022-10-25T10:37:08.286Z,15.7
2022-10-25T10:38:08.382Z,15.7
2022-10-25T10:39:08.473Z,15.8
2022-10-25T10:40:08.812Z,15.8
2022-10-25T10:41:08.564Z,15.8
2022-10-25T10:42:10.588Z,15.8
2022-10-25T10:43:08.626Z,15.8
2022-10-25T10:44:08.641Z,15.8
2022-10-25T10:45:08.805Z,15.7
2022-10-25T10:46:08.777Z,15.7
2022-10-25T10:47:08.840Z,15.8
2022-10-25T10:48:08.902Z,15.7
2022-10-25T10:49:08.930Z,15.7
2022-10-25T10:50:09.038Z,15.8
2022-10-25T10:51:11.959Z,15.8
2022-10-25T10:52:09.122Z,15.8
2022-10-25T10:53:09.136Z,15.7
2022-10-25T10:54:09.201Z,15.8
2022-10-25T10:55:09.298Z,15.8
2022-10-25T10:56:09.317Z,15.8
2022-10-25T10:57:09.396Z,15.8
2022-10-25T10:58:09.424Z,15.8
2022-10-25T10:59:09.527Z,15.8
2022-10-25T11:00:09.571Z,15.8
2022-10-25T11:01:09.748Z,15.8
2022-10-25T11:02:09.828Z,15.8
2022-10-25T11:03:09.758Z,15.8
2022-10-25T11:04:09.801Z,15.8
2022-10-25T11:05:09.871Z,15.8
2022-10-25T11:06:09.928Z,15.8
2022-10-25T11:07:10.002Z,15.7
2022-10-25T11:08:10.017Z,15.8
2022-10-25T11:09:10.078Z,15.8
2022-10-25T11:10:10.218Z,15.8
2022-10-25T11:11:10.191Z,15.8
2022-10-25T11:50:24.836Z,16.2
2022-10-25T11:51:24.652Z,16.1
2022-10-25T11:52:24.720Z,16
2022-10-25T11:53:24.796Z,16.1
2022-10-25T11:54:24.821Z,16
2022-10-25T11:55:24.886Z,16
2022-10-25T11:56:24.947Z,16
2022-10-25T11:57:25.010Z,15.9
2022-10-25T11:58:25.049Z,15.9
2022-10-25T11:59:25.181Z,15.9
2022-10-25T12:00:25.174Z,15.9
2022-10-25T12:01:25.328Z,15.9
2022-10-25T12:02:25.375Z,15.8
2022-10-25T12:03:25.366Z,15.8
2022-10-25T12:04:31.913Z,15.8
2022-10-25T12:05:25.447Z,15.8
2022-10-25T12:06:25.610Z,15.8
2022-10-25T12:07:25.519Z,15.8
2022-10-25T12:08:30.555Z,15.7
2022-10-25T12:09:25.652Z,15.6
2022-10-25T12:10:25.792Z,15.7
2022-10-25T12:11:30.718Z,15.8
2022-10-25T12:12:25.732Z,15.8
2022-10-25T12:13:25.797Z,15.9
2022-10-25T12:14:25.962Z,15.9
2022-10-25T12:15:25.942Z,15.9
2022-10-25T12:16:25.958Z,15.9
2022-10-25T12:17:26.050Z,15.8
2022-10-25T12:18:26.307Z,15.8
2022-10-25T12:19:26.451Z,15.8
2022-10-25T12:20:26.370Z,15.9
2022-10-25T12:21:26.592Z,16
2022-10-25T12:22:26.485Z,16
2022-10-25T12:23:26.466Z,16.1
2022-10-25T12:24:26.634Z,16.1
2022-10-25T12:25:26.568Z,16.2
2022-10-25T12:26:26.599Z,16.1
2022-10-25T12:27:26.670Z,16.1
2022-10-25T12:28:26.715Z,16.1
2022-10-25T12:29:26.754Z,16.1
2022-10-25T12:31:26.896Z,16.1
2022-10-25T12:32:27.006Z,16.2
2022-10-25T12:33:26.996Z,16.3
2022-10-25T12:34:27.022Z,16.3
2022-10-25T12:35:27.118Z,16.3
2022-10-25T12:36:27.177Z,16.5
2022-10-25T12:37:27.244Z,16.6
2022-10-25T12:38:27.409Z,16.5
2022-10-25T12:39:27.399Z,16.5
2022-10-25T12:40:27.448Z,16.3
2022-10-25T12:41:27.514Z,16.3
2022-10-25T12:42:27.509Z,16.4
2022-10-25T12:43:27.565Z,16.4
2022-10-25T12:44:27.622Z,16.4
2022-10-25T12:45:27.707Z,16.3
2022-10-25T12:46:27.739Z,16.3
2022-10-25T12:47:27.828Z,16.4
2022-10-25T12:48:27.930Z,16.3
2022-10-25T12:49:27.920Z,16.3
2022-10-25T12:50:28.004Z,16.2
2022-10-25T12:51:28.023Z,16.1
2022-10-25T12:52:28.054Z,16.1
2022-10-25T12:53:28.150Z,16.1
2022-10-25T12:54:28.338Z,16.1
2022-10-25T12:55:28.294Z,16
2022-10-25T12:56:28.305Z,16
2022-10-25T12:57:28.364Z,16.1
2022-10-25T12:58:28.436Z,16.1
2022-10-25T12:59:28.491Z,16.1
2022-10-25T13:00:28.553Z,16.3
2022-10-25T13:01:28.614Z,16.3
2022-10-25T13:02:28.706Z,16.3
2022-10-25T13:03:28.720Z,16.3
2022-10-25T13:04:28.807Z,16.4
2022-10-25T13:05:28.851Z,16.4
2022-10-25T13:06:28.969Z,16.4
2022-10-25T13:07:28.925Z,16.3
2022-10-25T13:08:29.063Z,16.3
2022-10-25T13:09:29.047Z,16.3
2022-10-25T13:10:29.239Z,16.2
2022-10-25T13:11:29.145Z,16.2
2022-10-25T13:12:29.210Z,16.2
2022-10-25T13:13:29.315Z,16.1
2022-10-25T13:14:29.339Z,16.1
2022-10-25T13:15:29.402Z,16
2022-10-25T13:16:29.490Z,15.9
2022-10-25T13:17:29.475Z,16
2022-10-25T13:18:29.524Z,16
2022-10-25T13:19:49.662Z,16
2022-10-25T13:20:29.606Z,16
2022-10-25T13:21:29.676Z,16.2
2022-10-25T13:22:31.493Z,16.2
2022-10-25T13:23:29.821Z,16.2
2022-10-25T13:24:29.956Z,16.3
2022-10-25T13:25:29.901Z,16.5
2022-10-25T13:26:30.056Z,16.6
2022-10-25T13:27:30.035Z,16.7
2022-10-25T13:28:32.864Z,16.7
2022-10-25T13:29:30.114Z,16.6
2022-10-25T13:30:31.786Z,16.5
2022-10-25T13:31:30.264Z,16.3
2022-10-25T13:32:30.334Z,16.3
2022-10-25T13:33:30.373Z,16.4
2022-10-25T13:34:30.829Z,16.5
2022-10-25T13:35:30.508Z,16.6
2022-10-25T13:36:30.537Z,16.6
2022-10-25T13:37:30.587Z,16.6
2022-10-25T13:38:32.436Z,16.7
2022-10-25T13:39:30.919Z,16.7
2022-10-25T13:40:30.742Z,16.7
2022-10-25T13:41:30.730Z,16.5
2022-10-25T13:42:30.913Z,16.5
2022-10-25T13:43:30.811Z,16.5
2022-10-25T13:44:31.137Z,16.6
2022-10-25T13:45:32.698Z,16.6
2022-10-25T13:46:31.037Z,16.5
2022-10-25T13:47:31.067Z,16.4
2022-10-25T13:48:31.109Z,16.3
2022-10-25T13:49:31.164Z,16.2
2022-10-25T13:50:31.266Z,16.1
2022-10-25T13:51:31.269Z,16.1
2022-10-25T13:52:31.300Z,16.1
2022-10-25T13:53:31.393Z,16.1
2022-10-25T13:54:32.028Z,16.1
2022-10-25T13:55:31.515Z,16.1
2022-10-25T13:56:31.543Z,16.1
2022-10-25T13:57:31.588Z,16.1
2022-10-25T13:58:32.444Z,16
2022-10-25T13:59:31.822Z,16
2022-10-25T14:00:31.856Z,16
2022-10-25T14:01:36.937Z,15.9
2022-10-25T14:02:31.888Z,15.9
2022-10-25T14:03:31.918Z,16
2022-10-25T14:04:32.515Z,16
2022-10-25T14:05:32.086Z,16
2022-10-25T14:06:32.122Z,15.9
2022-10-25T14:07:32.192Z,15.9
2022-10-25T14:08:32.273Z,16
2022-10-25T14:09:32.267Z,16
2022-10-25T14:10:32.465Z,16.1
2022-10-25T14:11:32.386Z,16.2
2022-10-25T14:12:33.023Z,16.2
2022-10-25T14:13:32.493Z,16.2
2022-10-25T14:14:32.585Z,16.1